메인 페이지
METAR-TAF:

METAR-TAF

공항 :

리스본 포르텔라 국제공항

리스본, 포르투갈

위도: 38-46N, 경도: 009-08W, 고도: 114m

현재 날씨관측

예보는 39분 전, 00:30시(UTC)에 발표되었습니다.
서북서8kt
온도 18°C
습도 88%
기압 1016 hPa
시정 10km 이상
1500m 미만 상공 구름 및 적란운 없음

METAR: LPPT 150030Z 30008KT CAVOK 18/16 Q1016

시각: 02:09 (01:09 UTC)

예보

예보는 2 시간 9분 전, 23:00시(UTC)에 발표되었습니다.
예보 대상 시간: 15일 00시부터 16일 06시까지 (UTC)
서북서7kt
시정 10km 이상
고도 1200ft 상공 구름 조금
확률 30% :
일시적
15일 03시부터 15일 08시까지 (UTC)
고도 300ft 상공 구름 많음
전환 중
15일 08시부터 15일 10시까지 (UTC)
여러 방향의 바람 3kt
고도 2500ft 상공 구름 조금
전환 중
15일 11시부터 15일 13시까지 (UTC)
서남서7kt
전환 중
15일 16시부터 15일 18시까지 (UTC)
북서12kt
전환 중
15일 21시부터 15일 24시까지 (UTC)
북서5kt
고도 1200ft 상공 구름 보통

TAF: LPPT 142300Z 1500/1606 30007KT 9999 FEW012 PROB30 TEMPO 1503/1508 BKN003 BECMG 1508/1510 VRB03KT FEW025 BECMG 1511/1513 25007KT BECMG 1516/1518 32012KT BECMG 1521/1524 32005KT SCT012

4,000개 이상의 공항 관측 자료 및 예보 (METAR 및 TAF 보고).

지도상에서 검색 가능한 기상관측소가 노란 점과 빨간 점으로 표시되어 있습니다.

기상관측소 명을 보려면 표시 위로 마우스를 이동하세요.

날씨 관측과 예보를 보려면 클릭하세요.

지도 변경 : 확대하려면 엑스 표시가 있는 녹색 버튼, 축소하려면 빼기 표시가 있는 녹색 버튼, 다음 페이지의 지도를 보려면 녹색 화살표를 클릭하세요.


METAR-TAF: